Terminal Aerodrome Forecast
Issued by NWS Charleston, WV

Current Version | Previous Version | Graphics & Text | Print | Product List | Glossary On
Versions: 1 2 3 4 5 6 7 8 9 10 11 12 13 14 15 16 17 18 19 20 21 22
000
FTUS41 KRLX 130200 AAA
TAFHTS
TAF AMD
KHTS 130234Z 1303/1324 21003KT P6SM SCT100
     FM130900 21005KT 6SM HZ BR BKN100
     FM131400 23010G20KT 6SM HZ BKN040 BKN100
     FM132300 22010G18KT 5SM TSRA BKN030CB BKN080=

USA.gov is the U.S. government's official web portal to all federal, state and local government web resources and services.